
Distance (Route):
Temperature : 0°C
Humidity : 0%
Pressure : 0hPa| Receiver | Date | Latitude | Longitude | Direction | Speed | Altitude | Climb | Temperature | Humidity | Pressure | Voltage | Killtimer | Uptime | BKT | XDATA |
|---|---|---|---|---|---|---|---|---|---|---|---|---|---|---|---|
| DL1NUX | 2026-09-01 09:43:42 | 49.76260 | 8.21930 | 87° | 69km/h | 15611m | 3.9m/s | 0°C | 0% | 0hPa | 0V | 00:00:00 | 00:00:00 | 00:00:00 | |
| DL1NUX | 2026-09-01 09:43:32 | 49.76244 | 8.21634 | 83° | 73km/h | 15566m | 5.3m/s | 0°C | 0% | 0hPa | 0V | 00:00:00 | 00:00:00 | 00:00:00 | |
| DL1NUX | 2026-09-01 09:43:22 | 49.76220 | 8.21340 | 80° | 73km/h | 15520m | 3.6m/s | 0°C | 0% | 0hPa | 0V | 00:00:00 | 00:00:00 | 00:00:00 | |
| DD1CC2-15 | 2026-09-01 09:43:21 | 49.76227 | 8.21427 | 84° | 75km/h | 15538m | 3.9m/s | -48.5°C | 0% | 0hPa | 0V | 00:00:00 | 00:00:00 | 00:00:00 | |
| SO1NDE-10 | 2026-09-01 09:43:19 | 49.76225 | 8.21398 | 85° | 71km/h | 15529m | 3.9m/s | 0°C | 0% | 0hPa | 0V | 00:00:00 | 00:00:00 | 00:00:00 | |
| DL1NUX | 2026-09-01 09:43:12 | 49.76190 | 8.21066 | 77° | 69km/h | 15477m | 4.2m/s | 0°C | 0% | 0hPa | 0V | 00:00:00 | 00:00:00 | 00:00:00 | |
| DL1NUX | 2026-09-01 09:42:58 | 49.76119 | 8.20677 | 71° | 69km/h | 15406m | 4.4m/s | 0°C | 0% | 0hPa | 0V | 00:00:00 | 00:00:00 | 00:00:00 | |
| SO1NDE-10 | 2026-09-01 09:42:49 | 49.76096 | 8.20576 | 73° | 64km/h | 15387m | 4.5m/s | 0°C | 0% | 0hPa | 0V | 00:00:00 | 00:00:00 | 00:00:00 | |
| DL1NUX | 2026-09-01 09:42:48 | 49.76063 | 8.20427 | 69° | 68km/h | 15360m | 5.2m/s | 0°C | 0% | 0hPa | 0V | 00:00:00 | 00:00:00 | 00:00:00 | |
| DL1NUX | 2026-09-01 09:42:38 | 49.76012 | 8.20183 | 69° | 62km/h | 15312m | 4.4m/s | 0°C | 0% | 0hPa | 0V | 00:00:00 | 00:00:00 | 00:00:00 | |
| DL1NUX | 2026-09-01 09:42:28 | 49.75962 | 8.19958 | 71° | 57km/h | 15264m | 3.9m/s | 0°C | 0% | 0hPa | 0V | 00:00:00 | 00:00:00 | 00:00:00 | |
| SO1NDE-10 | 2026-09-01 09:42:19 | 49.75941 | 8.19874 | 70° | 55km/h | 15245m | 4.6m/s | 0°C | 0% | 0hPa | 0V | 00:00:00 | 00:00:00 | 00:00:00 | |
| DL1NUX | 2026-09-01 09:42:18 | 49.75914 | 8.19747 | 75° | 53km/h | 15216m | 3m/s | 0°C | 0% | 0hPa | 0V | 00:00:00 | 00:00:00 | 00:00:00 | |
| DL1NUX | 2026-09-01 09:42:08 | 49.75874 | 8.19541 | 78° | 53km/h | 15169m | 4.3m/s | 0°C | 0% | 0hPa | 0V | 00:00:00 | 00:00:00 | 00:00:00 | |
| DL1NUX | 2026-09-01 09:41:58 | 49.75839 | 8.19337 | 76° | 53km/h | 15120m | 4.4m/s | 0°C | 0% | 0hPa | 0V | 00:00:00 | 00:00:00 | 00:00:00 | |
| SO1NDE-10 | 2026-09-01 09:41:49 | 49.75832 | 8.19258 | 86° | 57km/h | 15102m | 4.8m/s | 0°C | 0% | 0hPa | 0V | 00:00:00 | 00:00:00 | 00:00:00 | |
| DL1NUX | 2026-09-01 09:41:48 | 49.75811 | 8.19131 | 74° | 57km/h | 15073m | 5.6m/s | 0°C | 0% | 0hPa | 0V | 00:00:00 | 00:00:00 | 00:00:00 | |
| DL1NUX | 2026-09-01 09:41:38 | 49.75788 | 8.18915 | 73° | 60km/h | 15024m | 4.9m/s | 0°C | 0% | 0hPa | 0V | 00:00:00 | 00:00:00 | 00:00:00 | |
| DL1NUX | 2026-09-01 09:41:28 | 49.75756 | 8.18705 | 71° | 55km/h | 14975m | 4m/s | 0°C | 0% | 0hPa | 0V | 00:00:00 | 00:00:00 | 00:00:00 | |
| DL1NUX | 2026-09-01 09:41:18 | 49.75722 | 8.18500 | 68° | 53km/h | 14914m | 3.8m/s | 0°C | 0% | 0hPa | 0V | 00:00:00 | 00:00:00 | 00:00:00 | |
| SO1NDE-10 | 2026-09-01 09:41:18 | 49.75737 | 8.18599 | 80° | 53km/h | 14952m | 5.0m/s | 0°C | 0% | 0hPa | 0V | 00:00:00 | 00:00:00 | 00:00:00 | |
| DL1NUX | 2026-09-01 09:41:08 | 49.75685 | 8.18298 | 68° | 51km/h | 14881m | 5.1m/s | 0°C | 0% | 0hPa | 0V | 00:00:00 | 00:00:00 | 00:00:00 | |
| DL1NUX | 2026-09-01 09:40:58 | 49.75636 | 8.18102 | 74° | 53km/h | 14829m | 4.7m/s | 0°C | 0% | 0hPa | 0V | 00:00:00 | 00:00:00 | 00:00:00 | |
| DL1NUX | 2026-09-01 09:40:48 | 49.75594 | 8.17891 | 75° | 57km/h | 14785m | 4.2m/s | 0°C | 0% | 0hPa | 0V | 00:00:00 | 00:00:00 | 00:00:00 | |
| SO1NDE-10 | 2026-09-01 09:40:48 | 49.75614 | 8.17997 | 71° | 58km/h | 14810m | 5.0m/s | 0°C | 0% | 0hPa | 0V | 00:00:00 | 00:00:00 | 00:00:00 | |
| DL1NUX | 2026-09-01 09:40:38 | 49.75556 | 8.17673 | 80° | 55km/h | 14737m | 4.9m/s | 0°C | 0% | 0hPa | 0V | 00:00:00 | 00:00:00 | 00:00:00 | |
| DL1NUX | 2026-09-01 09:40:28 | 49.75529 | 8.17449 | 80° | 60km/h | 14689m | 5.5m/s | 0°C | 0% | 0hPa | 0V | 00:00:00 | 00:00:00 | 00:00:00 | |
| DL1NUX | 2026-09-01 09:40:18 | 49.75507 | 8.17206 | 80° | 66km/h | 14646m | 5.7m/s | 0°C | 0% | 0hPa | 0V | 00:00:00 | 00:00:00 | 00:00:00 | |
| SO1NDE-10 | 2026-09-01 09:40:18 | 49.75519 | 8.17334 | 83° | 66km/h | 14666m | 5.2m/s | 0°C | 0% | 0hPa | 0V | 00:00:00 | 00:00:00 | 00:00:00 |